Time;durP1;ratioP1;P1;durP2;ratioP2;P2;SDS_P1;SDS_P2;PMS_P1;PMS_P2;Temp;Humidity;BMP_temperature;BMP_pressure;BME280_temperature;BME280_humidity;BME280_pressure;Samples;Min_cycle;Max_cycle;Signal;HPM_P1;HPM_P2
2022/10/07 00:00:01;;;;;;;;;3.00;3.00;;;;;;;;5035336;28;10992;-81
2022/10/07 00:02:30;;;;;;;;;3.00;3.00;;;;;;;;5038036;28;10900;-80
2022/10/07 00:04:57;;;;;;;;;2.00;2.00;;;;;;;;5058705;28;11884;-79
2022/10/07 00:07:24;;;;;;;;;3.00;2.25;;;;;;;;5056877;28;10987;-79
2022/10/07 00:09:51;;;;;;;;;1.75;1.75;;;;;;;;5056160;28;11138;-78
2022/10/07 00:12:19;;;;;;;;;1.75;1.75;;;;;;;;5055035;28;10960;-80
2022/10/07 00:37:02;;;;;;;;;7.00;2.75;;;;;;;;5050731;28;12017;-81
2022/10/07 00:39:33;;;;;;;;;2.75;1.25;;;;;;;;5048497;28;11154;-80
2022/10/07 00:42:00;;;;;;;;;1.25;1.25;;;;;;;;5072967;28;12269;-85
2022/10/07 00:44:39;;;;;;;;;7.00;3.00;;;;;;;;5043271;28;11237;-84
2022/10/07 00:47:13;;;;;;;;;6.00;2.00;;;;;;;;5033147;28;11240;-83
2022/10/07 00:49:45;;;;;;;;;4.00;2.50;;;;;;;;5043254;28;11137;-79
2022/10/07 00:52:15;;;;;;;;;5.00;3.00;;;;;;;;5054370;28;11261;-79
2022/10/07 00:54:43;;;;;;;;;3.00;3.00;;;;;;;;5061085;28;11239;-80
2022/10/07 00:57:11;;;;;;;;;6.25;4.75;;;;;;;;5058453;28;12225;-80
2022/10/07 00:59:39;;;;;;;;;4.00;4.00;;;;;;;;5064824;28;11136;-80
2022/10/07 01:02:06;;;;;;;;;5.25;3.50;;;;;;;;5058186;28;12159;-80
2022/10/07 01:04:34;;;;;;;;;6.25;2.00;;;;;;;;5061028;28;11206;-80
2022/10/07 01:07:01;;;;;;;;;4.00;4.00;;;;;;;;5061254;28;11141;-81
2022/10/07 01:09:30;;;;;;;;;3.00;3.00;;;;;;;;5060731;28;11093;-81
2022/10/07 01:12:03;;;;;;;;;6.75;4.00;;;;;;;;5057416;28;11106;-80
2022/10/07 01:14:42;;;;;;;;;4.25;3.00;;;;;;;;5051765;28;11117;-80
2022/10/07 01:17:14;;;;;;;;;5.00;3.25;;;;;;;;5063541;28;11099;-80
2022/10/07 01:20:00;;;;;;;;;2.00;2.00;;;;;;;;5057755;28;11109;-80
2022/10/07 01:22:36;;;;;;;;;2.00;2.00;;;;;;;;5042897;28;10957;-82
2022/10/07 01:25:19;;;;;;;;;2.50;2.50;;;;;;;;5043529;28;10966;-80
2022/10/07 01:27:52;;;;;;;;;3.00;3.00;;;;;;;;5061893;28;11070;-80
2022/10/07 01:30:20;;;;;;;;;2.00;2.00;;;;;;;;5060313;28;11082;-82
2022/10/07 01:32:52;;;;;;;;;3.00;2.00;;;;;;;;5045374;28;11091;-80
2022/10/07 01:35:23;;;;;;;;;2.50;2.25;;;;;;;;5056729;28;10995;-80
2022/10/07 01:37:54;;;;;;;;;2.00;2.00;;;;;;;;5060349;28;11077;-81
2022/10/07 01:40:26;;;;;;;;;2.00;2.00;;;;;;;;5064483;28;11214;-81
2022/10/07 01:42:56;;;;;;;;;3.00;3.00;;;;;;;;5062538;28;11173;-82
2022/10/07 01:45:26;;;;;;;;;3.75;2.00;;;;;;;;5037160;28;11056;-84
2022/10/07 01:47:53;;;;;;;;;2.00;2.00;;;;;;;;5061014;28;11146;-82
2022/10/07 01:50:24;;;;;;;;;2.00;2.00;;;;;;;;5038961;28;11051;-83
2022/10/07 01:53:13;;;;;;;;;2.00;2.00;;;;;;;;5038697;28;11144;-80
2022/10/07 01:56:16;;;;;;;;;2.75;2.50;;;;;;;;5062819;28;11156;-81
2022/10/07 01:58:59;;;;;;;;;3.00;3.00;;;;;;;;5041961;28;11485;-84
2022/10/07 02:01:34;;;;;;;;;3.50;3.50;;;;;;;;5041121;28;11435;-83
2022/10/07 02:04:17;;;;;;;;;3.75;2.75;;;;;;;;5044345;28;11459;-84
2022/10/07 02:06:51;;;;;;;;;3.00;3.00;;;;;;;;5057049;28;11432;-81
2022/10/07 02:09:25;;;;;;;;;7.00;4.25;;;;;;;;5056589;28;11565;-81
2022/10/07 02:12:08;;;;;;;;;3.00;3.00;;;;;;;;5061486;28;11460;-84
2022/10/07 02:14:40;;;;;;;;;4.50;3.00;;;;;;;;5045417;28;11470;-81
2022/10/07 02:17:14;;;;;;;;;2.00;2.00;;;;;;;;5060021;28;11565;-81
2022/10/07 02:19:45;;;;;;;;;1.00;1.00;;;;;;;;5042270;28;11514;-80
2022/10/07 02:22:14;;;;;;;;;2.00;2.00;;;;;;;;5059019;28;11483;-80
2022/10/07 02:24:42;;;;;;;;;4.00;2.50;;;;;;;;5056358;28;11472;-83
2022/10/07 02:27:11;;;;;;;;;3.00;3.00;;;;;;;;5060588;28;11538;-84
2022/10/07 02:29:41;;;;;;;;;2.00;2.00;;;;;;;;5063312;28;11435;-80
2022/10/07 02:32:11;;;;;;;;;3.00;2.00;;;;;;;;5037635;28;11389;-80
2022/10/07 02:34:42;;;;;;;;;2.00;2.00;;;;;;;;5057507;28;11471;-82
2022/10/07 02:37:14;;;;;;;;;1.25;1.25;;;;;;;;5055931;28;11519;-81
2022/10/07 02:39:44;;;;;;;;;3.00;3.00;;;;;;;;5057323;28;12306;-81
2022/10/07 02:42:16;;;;;;;;;2.50;2.50;;;;;;;;5042056;28;11429;-83
2022/10/07 03:05:00;;;;;;;;;1.00;1.00;;;;;;;;5045287;28;12109;-80
2022/10/07 03:07:27;;;;;;;;;2.00;2.00;;;;;;;;5053449;28;12204;-80
2022/10/07 03:09:55;;;;;;;;;0.50;0.50;;;;;;;;5061044;28;11498;-83
2022/10/07 03:12:22;;;;;;;;;2.00;2.00;;;;;;;;5058713;28;11415;-81
2022/10/07 03:14:49;;;;;;;;;4.00;2.00;;;;;;;;5051365;28;11487;-83
2022/10/07 03:17:17;;;;;;;;;2.00;2.00;;;;;;;;5059315;28;13166;-85
2022/10/07 03:19:44;;;;;;;;;1.25;1.25;;;;;;;;5057486;28;11450;-81
2022/10/07 03:22:13;;;;;;;;;3.00;3.00;;;;;;;;5060222;28;11492;-80
2022/10/07 03:24:41;;;;;;;;;1.75;1.75;;;;;;;;5064705;28;11452;-82
2022/10/07 03:27:08;;;;;;;;;1.00;1.00;;;;;;;;5055954;28;11451;-81
2022/10/07 03:29:36;;;;;;;;;2.00;2.00;;;;;;;;5056632;28;12149;-84
2022/10/07 03:32:03;;;;;;;;;1.00;1.00;;;;;;;;5059362;28;11409;-83
2022/10/07 03:34:31;;;;;;;;;1.50;1.25;;;;;;;;5059723;28;11459;-81
2022/10/07 03:36:59;;;;;;;;;2.00;2.00;;;;;;;;5058715;28;11562;-81
2022/10/07 03:39:28;;;;;;;;;2.25;2.00;;;;;;;;5061265;28;12293;-83
2022/10/07 03:41:55;;;;;;;;;2.00;2.00;;;;;;;;5061678;28;11437;-82
2022/10/07 03:47:47;;;;;;;;;1.25;1.00;;;;;;;;5049854;28;11810;-80
2022/10/07 03:50:14;;;;;;;;;2.75;2.75;;;;;;;;5059148;28;11606;-79
2022/10/07 03:52:44;;;;;;;;;3.00;3.00;;;;;;;;5052809;28;11525;-81
2022/10/07 03:55:13;;;;;;;;;3.00;1.75;;;;;;;;5064171;28;11413;-81
2022/10/07 03:57:52;;;;;;;;;2.00;2.00;;;;;;;;5060860;28;11579;-81
2022/10/07 04:00:22;;;;;;;;;0.75;0.75;;;;;;;;5058179;28;11428;-81
2022/10/07 04:02:50;;;;;;;;;1.00;1.00;;;;;;;;5064718;28;11469;-82
2022/10/07 04:05:18;;;;;;;;;1.00;1.00;;;;;;;;5065877;28;11565;-80
2022/10/07 04:07:46;;;;;;;;;2.00;2.00;;;;;;;;5058043;28;11794;-81
2022/10/07 04:10:17;;;;;;;;;0.00;0.00;;;;;;;;5052622;28;11431;-81
2022/10/07 04:12:46;;;;;;;;;1.00;1.00;;;;;;;;5056314;28;11482;-82
2022/10/07 04:15:14;;;;;;;;;1.25;1.25;;;;;;;;5034109;28;11530;-83
2022/10/07 04:17:42;;;;;;;;;2.00;2.00;;;;;;;;5058817;28;11419;-81
2022/10/07 04:20:11;;;;;;;;;0.00;0.00;;;;;;;;5060561;28;11422;-85
2022/10/07 04:22:38;;;;;;;;;2.00;2.00;;;;;;;;5040307;28;11560;-82
2022/10/07 04:27:54;;;;;;;;;0.00;0.00;;;;;;;;5058820;28;11431;-82
2022/10/07 04:30:23;;;;;;;;;3.00;1.00;;;;;;;;5052173;28;12715;-85
2022/10/07 04:32:50;;;;;;;;;2.00;2.00;;;;;;;;5051777;28;11439;-83
2022/10/07 04:35:18;;;;;;;;;2.75;1.00;;;;;;;;5065646;28;11416;-81
2022/10/07 04:37:47;;;;;;;;;2.00;2.00;;;;;;;;5061798;28;11426;-80
2022/10/07 04:40:15;;;;;;;;;3.00;2.00;;;;;;;;5059146;28;11448;-81
2022/10/07 05:05:45;;;;;;;;;2.25;2.25;;;;;;;;5050434;28;11399;-79
2022/10/07 05:08:12;;;;;;;;;1.00;1.00;;;;;;;;5059814;28;11421;-85
2022/10/07 05:10:41;;;;;;;;;2.00;2.00;;;;;;;;5066799;28;11435;-81
2022/10/07 05:13:11;;;;;;;;;1.00;1.00;;;;;;;;5027414;28;11554;-86
2022/10/07 05:32:34;;;;;;;;;5.00;2.50;;;;;;;;5059525;28;11622;-78
2022/10/07 05:35:02;;;;;;;;;2.00;2.00;;;;;;;;5047137;28;11486;-81
2022/10/07 05:37:31;;;;;;;;;3.00;3.00;;;;;;;;5056197;28;12175;-83
2022/10/07 05:39:58;;;;;;;;;6.25;5.00;;;;;;;;5063945;28;11593;-82
2022/10/07 05:42:26;;;;;;;;;6.50;5.00;;;;;;;;5059407;28;11437;-87
2022/10/07 06:02:36;;;;;;;;;0.00;0.00;;;;;;;;5069124;28;12173;-77
2022/10/07 06:05:05;;;;;;;;;3.00;3.00;;;;;;;;5052562;28;11442;-77
2022/10/07 06:07:32;;;;;;;;;4.00;4.00;;;;;;;;5058990;28;11463;-77
2022/10/07 06:39:56;;;;;;;;;3.00;3.00;;;;;;;;5056700;28;11462;-72
2022/10/07 06:42:23;;;;;;;;;3.00;3.00;;;;;;;;5015564;28;11502;-73
2022/10/07 06:44:52;;;;;;;;;5.00;5.00;;;;;;;;5030676;28;11513;-74
2022/10/07 06:47:20;;;;;;;;;5.00;5.00;;;;;;;;5038014;28;11479;-78
2022/10/07 06:49:47;;;;;;;;;6.00;6.00;;;;;;;;5039532;28;11494;-76
2022/10/07 06:52:14;;;;;;;;;5.75;5.75;;;;;;;;5033910;28;12386;-73
2022/10/07 06:54:42;;;;;;;;;12.00;8.25;;;;;;;;5036396;28;11594;-79
2022/10/07 06:57:11;;;;;;;;;7.25;7.25;;;;;;;;5039697;28;11572;-78
2022/10/07 06:59:38;;;;;;;;;8.25;7.00;;;;;;;;5034180;28;12146;-75
2022/10/07 07:02:05;;;;;;;;;12.50;11.00;;;;;;;;5037865;28;11455;-81
2022/10/07 07:04:33;;;;;;;;;10.25;7.75;;;;;;;;5032199;28;11512;-78
2022/10/07 07:07:01;;;;;;;;;10.25;8.00;;;;;;;;5038997;28;11639;-75
2022/10/07 07:09:28;;;;;;;;;9.25;9.25;;;;;;;;5048328;28;12290;-73
2022/10/07 07:11:56;;;;;;;;;8.25;7.00;;;;;;;;5042671;28;11661;-75
2022/10/07 07:14:25;;;;;;;;;9.75;9.75;;;;;;;;5041021;28;11640;-74
2022/10/07 07:16:53;;;;;;;;;10.00;10.00;;;;;;;;5027276;28;11490;-74
2022/10/07 07:19:20;;;;;;;;;8.75;8.75;;;;;;;;5041181;28;11471;-75
2022/10/07 07:21:47;;;;;;;;;13.25;12.75;;;;;;;;5036694;28;12244;-74
2022/10/07 07:24:15;;;;;;;;;12.50;11.25;;;;;;;;5036206;28;11481;-71
2022/10/07 07:26:42;;;;;;;;;11.50;8.00;;;;;;;;5033866;28;11484;-75
2022/10/07 07:29:11;;;;;;;;;9.00;9.00;;;;;;;;5040536;28;12310;-71
2022/10/07 07:31:40;;;;;;;;;9.25;9.25;;;;;;;;5034872;28;11449;-75
2022/10/07 07:34:10;;;;;;;;;9.25;6.75;;;;;;;;5035294;28;11506;-73
2022/10/07 07:36:38;;;;;;;;;6.50;6.50;;;;;;;;5030678;28;11462;-76
2022/10/07 07:39:09;;;;;;;;;4.00;4.00;;;;;;;;5039565;28;12350;-73
2022/10/07 07:41:40;;;;;;;;;7.25;7.25;;;;;;;;5053273;28;11199;-73
2022/10/07 07:44:09;;;;;;;;;3.75;3.75;;;;;;;;5058142;28;11137;-75
2022/10/07 07:46:40;;;;;;;;;6.75;6.75;;;;;;;;5049422;28;11780;-74
2022/10/07 07:49:09;;;;;;;;;3.50;3.50;;;;;;;;5058083;28;11028;-74
2022/10/07 07:51:38;;;;;;;;;5.50;4.00;;;;;;;;5060512;28;11011;-74
2022/10/07 07:54:06;;;;;;;;;5.25;3.75;;;;;;;;5060641;28;10892;-76
2022/10/07 07:56:33;;;;;;;;;7.00;3.00;;;;;;;;5050373;28;10713;-76
2022/10/07 07:59:01;;;;;;;;;5.00;4.00;;;;;;;;5057861;28;10676;-72
2022/10/07 08:01:30;;;;;;;;;7.00;4.00;;;;;;;;5053058;28;10620;-76
2022/10/07 08:04:00;;;;;;;;;3.25;3.00;;;;;;;;5052463;28;10537;-76
2022/10/07 08:06:29;;;;;;;;;5.00;3.25;;;;;;;;5057808;28;10502;-78
2022/10/07 08:08:58;;;;;;;;;3.50;3.00;;;;;;;;5063214;28;10316;-74
2022/10/07 08:11:26;;;;;;;;;5.00;4.00;;;;;;;;5062198;28;10414;-73
2022/10/07 08:13:54;;;;;;;;;10.00;6.25;;;;;;;;5059987;28;10478;-77
2022/10/07 08:16:23;;;;;;;;;7.00;7.00;;;;;;;;5053059;28;10808;-82
2022/10/07 08:18:52;;;;;;;;;8.00;8.00;;;;;;;;5055667;28;10665;-75
2022/10/07 08:21:22;;;;;;;;;4.00;4.00;;;;;;;;5058730;28;10760;-79
2022/10/07 08:23:53;;;;;;;;;2.00;2.00;;;;;;;;5054676;28;10389;-87
2022/10/07 08:26:22;;;;;;;;;3.00;3.00;;;;;;;;5058049;28;10033;-75
2022/10/07 08:28:49;;;;;;;;;5.00;3.00;;;;;;;;5056899;28;9887;-82
2022/10/07 08:31:18;;;;;;;;;3.00;2.00;;;;;;;;5054024;28;9674;-74
2022/10/07 08:33:47;;;;;;;;;3.50;2.00;;;;;;;;5050624;28;9590;-75
2022/10/07 08:36:16;;;;;;;;;2.75;2.75;;;;;;;;5056701;28;9639;-75
2022/10/07 08:38:49;;;;;;;;;5.00;4.00;;;;;;;;5060900;28;9603;-78
2022/10/07 08:41:46;;;;;;;;;1.67;1.67;;;;;;;;5045303;28;9494;-78
2022/10/07 08:44:19;;;;;;;;;3.33;2.00;;;;;;;;5034333;28;9487;-78
2022/10/07 08:46:56;;;;;;;;;4.33;3.00;;;;;;;;5032812;28;9380;-80
2022/10/07 08:49:34;;;;;;;;;2.00;2.00;;;;;;;;5043922;28;9379;-81
2022/10/07 08:52:05;;;;;;;;;2.50;2.50;;;;;;;;5023405;28;8953;-81
2022/10/07 08:54:34;;;;;;;;;3.33;3.33;;;;;;;;5044388;28;8852;-87
2022/10/07 08:57:08;;;;;;;;;1.00;1.00;;;;;;;;5043892;28;8961;-77
2022/10/07 08:59:35;;;;;;;;;4.75;3.75;;;;;;;;5047522;28;9730;-91
2022/10/07 09:02:15;;;;;;;;;3.25;2.75;;;;;;;;5044967;28;8919;-82
2022/10/07 09:04:53;;;;;;;;;3.00;2.00;;;;;;;;5044887;28;8873;-78
2022/10/07 09:07:30;;;;;;;;;4.00;2.00;;;;;;;;5043893;28;8876;-78
2022/10/07 09:10:02;;;;;;;;;5.00;3.25;;;;;;;;5026161;28;8882;-84
2022/10/07 09:12:36;;;;;;;;;2.00;2.00;;;;;;;;5044096;28;8844;-79
2022/10/07 09:15:05;;;;;;;;;2.25;2.25;;;;;;;;5041061;28;8886;-88
2022/10/07 09:17:36;;;;;;;;;3.50;2.50;;;;;;;;5036872;28;8860;-83
2022/10/07 09:20:12;;;;;;;;;3.25;1.75;;;;;;;;5043362;28;8902;-76
2022/10/07 09:22:41;;;;;;;;;3.50;1.25;;;;;;;;5046563;28;8959;-88
2022/10/07 09:25:23;;;;;;;;;6.00;3.00;;;;;;;;5045173;28;8876;-84
2022/10/07 09:27:51;;;;;;;;;2.00;2.00;;;;;;;;5043135;28;9428;-84
2022/10/07 09:30:19;;;;;;;;;2.25;2.25;;;;;;;;5042841;28;9125;-84
2022/10/07 09:32:48;;;;;;;;;3.00;3.00;;;;;;;;5041282;28;9550;-79
2022/10/07 09:35:17;;;;;;;;;3.00;2.00;;;;;;;;5044658;28;8860;-83
2022/10/07 09:37:59;;;;;;;;;3.50;3.50;;;;;;;;5042968;28;9724;-83
2022/10/07 09:41:13;;;;;;;;;1.75;1.75;;;;;;;;5047934;28;8850;-80
2022/10/07 09:43:24;;;;;;;;;2.75;2.75;;;;;;;;5061285;28;8942;-85
2022/10/07 09:45:52;;;;;;;;;2.25;2.25;;;;;;;;5055237;28;8874;-85
2022/10/07 09:48:22;;;;;;;;;3.75;3.00;;;;;;;;5051595;28;8888;-90
2022/10/07 09:50:50;;;;;;;;;2.00;2.00;;;;;;;;5061134;28;8992;-82
2022/10/07 09:53:20;;;;;;;;;2.00;2.00;;;;;;;;5063901;28;8850;-77
2022/10/07 09:55:51;;;;;;;;;3.75;1.00;;;;;;;;5059633;28;8870;-81
2022/10/07 09:58:20;;;;;;;;;0.75;0.75;;;;;;;;5067191;28;8914;-86
2022/10/07 10:00:50;;;;;;;;;2.00;2.00;;;;;;;;5066305;28;8969;-86
2022/10/07 10:03:18;;;;;;;;;2.00;2.00;;;;;;;;5060028;28;9741;-82
2022/10/07 10:05:56;;;;;;;;;1.00;1.00;;;;;;;;5042898;28;8884;-82
2022/10/07 10:08:26;;;;;;;;;3.00;2.00;;;;;;;;5066780;28;8870;-77
2022/10/07 10:10:56;;;;;;;;;2.00;2.00;;;;;;;;5047543;28;8881;-79
2022/10/07 10:13:30;;;;;;;;;1.40;1.00;;;;;;;;5059736;28;8882;-76
2022/10/07 10:15:58;;;;;;;;;0.60;0.60;;;;;;;;5056292;28;9690;-78
2022/10/07 10:18:30;;;;;;;;;2.00;2.00;;;;;;;;5048546;28;8947;-76
2022/10/07 10:21:00;;;;;;;;;1.00;1.00;;;;;;;;5054427;28;8891;-74
2022/10/07 10:23:31;;;;;;;;;1.40;1.40;;;;;;;;5042848;28;8822;-82
2022/10/07 10:26:26;;;;;;;;;2.80;2.80;;;;;;;;5058322;28;8916;-76
2022/10/07 10:29:00;;;;;;;;;3.80;3.80;;;;;;;;5054820;28;9355;-82
2022/10/07 10:31:44;;;;;;;;;2.00;0.80;;;;;;;;5056243;28;8817;-81
2022/10/07 10:34:23;;;;;;;;;0.20;0.20;;;;;;;;5059005;28;8881;-79
2022/10/07 10:36:55;;;;;;;;;2.40;1.00;;;;;;;;5067995;28;8873;-86
2022/10/07 10:39:30;;;;;;;;;0.40;0.40;;;;;;;;5049687;28;9685;-86
2022/10/07 10:42:01;;;;;;;;;5.20;1.20;;;;;;;;5060810;28;8972;-84
2022/10/07 10:44:50;;;;;;;;;6.50;6.50;;;;;;;;5059274;28;8850;-88
2022/10/07 10:47:25;;;;;;;;;8.80;6.40;;;;;;;;5051909;28;8881;-86
2022/10/07 10:50:04;;;;;;;;;3.20;3.20;;;;;;;;5061673;28;8965;-86
2022/10/07 10:52:45;;;;;;;;;2.20;2.20;;;;;;;;5055710;28;8912;-87
2022/10/07 10:55:35;;;;;;;;;3.60;2.00;;;;;;;;5059146;28;8965;-85
2022/10/07 10:58:15;;;;;;;;;1.00;1.00;;;;;;;;5060712;28;8816;-87
2022/10/07 11:00:53;;;;;;;;;1.20;1.20;;;;;;;;5051804;28;8791;-80
2022/10/07 11:03:37;;;;;;;;;0.80;0.80;;;;;;;;5057397;28;8950;-82
2022/10/07 11:06:07;;;;;;;;;1.00;1.00;;;;;;;;5058427;28;8830;-77
2022/10/07 11:08:56;;;;;;;;;2.00;1.00;;;;;;;;5057225;28;9606;-86
2022/10/07 11:11:24;;;;;;;;;0.40;0.40;;;;;;;;5062288;28;8834;-80
2022/10/07 11:13:56;;;;;;;;;2.00;0.40;;;;;;;;5058535;28;8973;-76
2022/10/07 11:16:58;;;;;;;;;1.00;1.00;;;;;;;;5059097;28;9647;-76
2022/10/07 11:19:30;;;;;;;;;2.80;1.00;;;;;;;;5052740;28;8846;-84
2022/10/07 11:21:59;;;;;;;;;1.60;0.60;;;;;;;;5049233;28;8872;-78
2022/10/07 11:24:31;;;;;;;;;0.00;0.00;;;;;;;;5056981;28;9668;-82
2022/10/07 11:27:02;;;;;;;;;3.00;1.00;;;;;;;;5059927;28;8865;-79
2022/10/07 11:29:37;;;;;;;;;4.00;1.00;;;;;;;;5043360;28;8867;-87
2022/10/07 11:32:08;;;;;;;;;1.60;1.60;;;;;;;;5055592;28;8806;-84
2022/10/07 11:34:41;;;;;;;;;2.00;0.00;;;;;;;;5058546;28;8856;-78
2022/10/07 11:37:12;;;;;;;;;0.80;0.40;;;;;;;;5058144;28;9670;-80
2022/10/07 11:39:39;;;;;;;;;3.80;1.00;;;;;;;;5060943;28;9655;-83
2022/10/07 11:42:12;;;;;;;;;1.00;1.00;;;;;;;;5061819;28;8881;-83
2022/10/07 11:44:50;;;;;;;;;1.00;1.00;;;;;;;;5058162;28;8868;-81
2022/10/07 11:47:52;;;;;;;;;0.80;0.80;;;;;;;;5054821;28;8846;-84
2022/10/07 11:50:22;;;;;;;;;0.60;0.00;;;;;;;;5056851;28;8893;-83
2022/10/07 11:52:53;;;;;;;;;0.80;0.80;;;;;;;;5059791;28;8943;-77
2022/10/07 11:55:23;;;;;;;;;1.00;1.00;;;;;;;;5054908;28;8842;-80
2022/10/07 11:57:54;;;;;;;;;1.20;0.80;;;;;;;;5062388;28;9702;-78
2022/10/07 12:00:37;;;;;;;;;0.40;0.40;;;;;;;;5058187;28;8866;-79
2022/10/07 12:03:13;;;;;;;;;0.80;0.80;;;;;;;;5057672;28;9603;-84
2022/10/07 12:06:09;;;;;;;;;1.60;1.00;;;;;;;;5052620;28;8860;-83
2022/10/07 12:08:37;;;;;;;;;0.60;0.60;;;;;;;;5043902;28;8869;-83
2022/10/07 12:11:40;;;;;;;;;1.80;1.00;;;;;;;;5054971;28;8857;-83
2022/10/07 12:14:24;;;;;;;;;1.00;1.00;;;;;;;;4997050;28;8987;-81
2022/10/07 12:17:27;;;;;;;;;0.00;0.00;;;;;;;;5049324;28;8876;-82
2022/10/07 12:20:31;;;;;;;;;2.00;1.00;;;;;;;;5051892;28;8860;-74
2022/10/07 12:23:32;;;;;;;;;0.00;0.00;;;;;;;;5059281;28;9616;-76
2022/10/07 12:25:59;;;;;;;;;0.20;0.20;;;;;;;;5055569;28;8856;-74
2022/10/07 12:28:33;;;;;;;;;1.20;1.00;;;;;;;;5052892;28;8854;-79
2022/10/07 12:31:02;;;;;;;;;2.40;0.20;;;;;;;;5056053;28;8952;-85
2022/10/07 12:33:34;;;;;;;;;1.60;1.00;;;;;;;;5061716;28;8858;-77
2022/10/07 12:36:26;;;;;;;;;0.60;0.60;;;;;;;;5057729;28;8854;-78
2022/10/07 12:39:32;;;;;;;;;0.40;0.40;;;;;;;;5064358;28;9646;-81
2022/10/07 12:42:00;;;;;;;;;0.00;0.00;;;;;;;;5059485;28;8842;-82
2022/10/07 12:44:33;;;;;;;;;1.20;1.00;;;;;;;;5062076;28;8923;-84
2022/10/07 12:47:14;;;;;;;;;0.60;0.00;;;;;;;;5056317;28;9599;-80
2022/10/07 12:49:47;;;;;;;;;0.00;0.00;;;;;;;;5057560;28;8874;-80
2022/10/07 12:52:18;;;;;;;;;3.00;1.00;;;;;;;;5062028;28;8888;-82
2022/10/07 12:54:52;;;;;;;;;2.00;0.80;;;;;;;;5064623;28;9013;-81
2022/10/07 12:57:23;;;;;;;;;0.80;0.80;;;;;;;;5059376;28;10303;-83
2022/10/07 12:59:58;;;;;;;;;0.40;0.20;;;;;;;;5069569;28;8830;-84
2022/10/07 13:02:56;;;;;;;;;1.00;1.00;;;;;;;;5064824;28;8842;-82
2022/10/07 13:06:07;;;;;;;;;1.00;1.00;;;;;;;;5059440;28;9611;-80
2022/10/07 13:09:15;;;;;;;;;0.80;0.80;;;;;;;;5045708;28;8846;-84
2022/10/07 13:12:17;;;;;;;;;1.20;1.00;;;;;;;;5063073;28;8903;-84
2022/10/07 13:14:53;;;;;;;;;0.80;0.00;;;;;;;;4999492;28;8885;-79
2022/10/07 13:17:31;;;;;;;;;0.00;0.00;;;;;;;;4990745;28;9021;-81
2022/10/07 13:20:06;;;;;;;;;0.00;0.00;;;;;;;;5036933;28;9052;-83
2022/10/07 13:22:35;;;;;;;;;0.80;0.80;;;;;;;;5063783;28;8855;-86
2022/10/07 13:25:04;;;;;;;;;0.00;0.00;;;;;;;;5065846;28;8854;-85
2022/10/07 13:27:34;;;;;;;;;1.00;1.00;;;;;;;;5067631;28;8918;-86
2022/10/07 13:30:04;;;;;;;;;1.20;1.20;;;;;;;;5063872;28;8923;-83
2022/10/07 13:32:33;;;;;;;;;1.00;1.00;;;;;;;;5065259;28;8806;-86
2022/10/07 13:35:26;;;;;;;;;3.20;1.00;;;;;;;;5064929;28;8866;-85
2022/10/07 13:37:55;;;;;;;;;2.00;0.20;;;;;;;;5061321;28;8874;-85
2022/10/07 13:40:27;;;;;;;;;0.00;0.00;;;;;;;;5064538;28;8842;-84
2022/10/07 13:42:56;;;;;;;;;1.40;1.00;;;;;;;;5064708;28;9024;-83
2022/10/07 13:45:23;;;;;;;;;0.00;0.00;;;;;;;;5065583;28;8917;-87
2022/10/07 13:47:51;;;;;;;;;2.20;0.80;;;;;;;;5055325;28;8890;-87
2022/10/07 13:50:21;;;;;;;;;0.80;0.80;;;;;;;;5065837;28;8885;-88
2022/10/07 13:52:51;;;;;;;;;0.60;0.60;;;;;;;;5066969;28;8980;-87
2022/10/07 13:55:28;;;;;;;;;4.00;1.00;;;;;;;;5065502;28;8886;-86
2022/10/07 13:57:57;;;;;;;;;0.40;0.40;;;;;;;;5065085;28;8928;-87
2022/10/07 14:00:24;;;;;;;;;0.40;0.40;;;;;;;;5063965;28;8836;-85
2022/10/07 14:02:51;;;;;;;;;0.80;0.80;;;;;;;;5066025;28;8976;-82
2022/10/07 14:05:22;;;;;;;;;0.60;0.60;;;;;;;;5063890;28;8846;-86
2022/10/07 14:07:53;;;;;;;;;1.00;1.00;;;;;;;;5064557;28;8866;-84
2022/10/07 14:10:23;;;;;;;;;0.80;0.80;;;;;;;;5066185;28;8850;-86
2022/10/07 14:12:56;;;;;;;;;2.80;1.00;;;;;;;;5064867;28;8868;-88
2022/10/07 14:15:26;;;;;;;;;1.00;1.00;;;;;;;;5065677;28;8886;-87
2022/10/07 14:17:55;;;;;;;;;0.80;0.80;;;;;;;;5038743;28;8837;-88
2022/10/07 14:20:26;;;;;;;;;0.80;0.80;;;;;;;;5064254;28;9010;-88
2022/10/07 14:22:55;;;;;;;;;2.80;1.40;;;;;;;;5064624;28;8903;-90
2022/10/07 14:25:26;;;;;;;;;2.80;1.80;;;;;;;;5062270;28;8873;-88
2022/10/07 14:28:06;;;;;;;;;0.80;0.80;;;;;;;;5065679;28;8874;-88
2022/10/07 14:36:34;;;;;;;;;0.40;0.40;;;;;;;;5019285;28;8831;-87
2022/10/07 14:39:22;;;;;;;;;2.60;2.60;;;;;;;;5031446;28;8857;-85
2022/10/07 14:41:51;;;;;;;;;4.80;2.20;;;;;;;;5061831;28;9010;-83
2022/10/07 14:44:19;;;;;;;;;2.20;1.80;;;;;;;;5064102;28;8852;-86
2022/10/07 14:46:46;;;;;;;;;1.80;1.80;;;;;;;;5065406;28;8995;-78
2022/10/07 14:49:14;;;;;;;;;3.80;2.20;;;;;;;;5053996;28;8867;-85
2022/10/07 14:51:43;;;;;;;;;0.80;0.80;;;;;;;;5063450;28;9011;-86
2022/10/07 14:54:12;;;;;;;;;1.40;1.40;;;;;;;;5064769;28;8892;-86
2022/10/07 14:56:39;;;;;;;;;5.00;2.20;;;;;;;;5062281;28;8883;-80
2022/10/07 14:59:12;;;;;;;;;3.40;3.40;;;;;;;;5058924;28;8883;-81
2022/10/07 15:01:39;;;;;;;;;3.00;3.00;;;;;;;;5060688;28;8815;-84
2022/10/07 15:04:06;;;;;;;;;3.00;3.00;;;;;;;;5062063;28;8993;-81
2022/10/07 15:06:34;;;;;;;;;1.40;1.40;;;;;;;;5059917;28;9339;-85
2022/10/07 15:09:01;;;;;;;;;2.00;2.00;;;;;;;;5057197;28;8866;-74
2022/10/07 15:11:29;;;;;;;;;2.00;2.00;;;;;;;;5055542;28;8865;-80
2022/10/07 15:13:56;;;;;;;;;3.20;3.20;;;;;;;;5052547;28;8870;-78
2022/10/07 15:16:30;;;;;;;;;6.00;4.20;;;;;;;;5055218;28;9448;-77
2022/10/07 15:18:58;;;;;;;;;9.40;3.20;;;;;;;;5037745;28;8891;-74
2022/10/07 15:21:25;;;;;;;;;4.00;3.80;;;;;;;;5053684;28;8888;-78
2022/10/07 15:23:53;;;;;;;;;2.80;2.80;;;;;;;;5059148;28;8852;-86
2022/10/07 15:26:23;;;;;;;;;2.00;2.00;;;;;;;;5064880;28;8876;-77
2022/10/07 15:28:51;;;;;;;;;2.00;1.80;;;;;;;;5058390;28;8885;-86
2022/10/07 15:31:18;;;;;;;;;4.00;2.20;;;;;;;;5059325;28;8835;-77
2022/10/07 15:33:47;;;;;;;;;3.80;3.80;;;;;;;;5058323;28;8892;-78
2022/10/07 15:36:16;;;;;;;;;4.80;3.40;;;;;;;;5063913;28;8899;-84
2022/10/07 15:38:43;;;;;;;;;7.20;4.00;;;;;;;;5059569;28;8873;-75
2022/10/07 15:41:32;;;;;;;;;4.60;2.60;;;;;;;;5038519;28;8913;-80
2022/10/07 15:44:00;;;;;;;;;4.80;3.80;;;;;;;;5034170;28;8880;-83
2022/10/07 15:46:28;;;;;;;;;5.40;2.20;;;;;;;;5031906;28;8895;-79
2022/10/07 15:49:54;;;;;;;;;2.20;2.20;;;;;;;;5023963;28;8956;-85
2022/10/07 15:52:22;;;;;;;;;2.80;1.80;;;;;;;;5026972;28;8864;-77
2022/10/07 15:54:50;;;;;;;;;3.80;2.20;;;;;;;;5036601;28;8867;-79
2022/10/07 15:57:17;;;;;;;;;1.60;1.60;;;;;;;;5034427;28;8860;-80
2022/10/07 15:59:45;;;;;;;;;3.00;1.20;;;;;;;;5035400;28;8868;-81
2022/10/07 16:02:15;;;;;;;;;3.20;2.00;;;;;;;;5016258;28;8858;-83
2022/10/07 16:04:43;;;;;;;;;1.00;1.00;;;;;;;;5036527;28;8852;-83
2022/10/07 16:07:11;;;;;;;;;1.80;1.60;;;;;;;;5032189;28;8998;-80
2022/10/07 16:09:40;;;;;;;;;2.00;2.00;;;;;;;;5035700;28;9615;-80
2022/10/07 16:12:07;;;;;;;;;1.00;1.00;;;;;;;;5014805;28;8848;-78
2022/10/07 16:14:34;;;;;;;;;2.20;2.20;;;;;;;;5035900;28;8916;-81
2022/10/07 16:17:02;;;;;;;;;1.00;1.00;;;;;;;;5029838;28;8868;-84
2022/10/07 16:20:03;;;;;;;;;3.20;1.20;;;;;;;;5042031;28;8840;-83
2022/10/07 16:22:31;;;;;;;;;1.60;0.40;;;;;;;;5031221;28;9007;-77
2022/10/07 16:24:59;;;;;;;;;1.00;1.00;;;;;;;;5033410;28;8950;-76
2022/10/07 16:30:39;;;;;;;;;0.00;0.00;;;;;;;;5036651;28;8883;-77
2022/10/07 16:32:59;;;;;;;;;0.00;0.00;;;;;;;;5021124;28;9619;-79
2022/10/07 16:35:30;;;;;;;;;3.00;1.00;;;;;;;;5035851;28;8878;-85
2022/10/07 16:37:57;;;;;;;;;0.00;0.00;;;;;;;;5040624;28;8872;-83
2022/10/07 16:40:26;;;;;;;;;1.00;1.00;;;;;;;;5023652;28;8880;-81
2022/10/07 16:42:53;;;;;;;;;1.00;1.00;;;;;;;;5057905;28;8901;-84
2022/10/07 16:45:22;;;;;;;;;0.40;0.40;;;;;;;;5062103;28;8976;-80
2022/10/07 17:04:43;;;;;;;;;1.20;0.60;;;;;;;;5045951;28;8848;-78
2022/10/07 17:07:10;;;;;;;;;2.60;2.00;;;;;;;;5056688;28;8832;-82
2022/10/07 17:09:37;;;;;;;;;2.00;1.00;;;;;;;;5059013;28;8869;-78
2022/10/07 17:12:05;;;;;;;;;1.50;1.50;;;;;;;;5056977;28;8846;-79
2022/10/07 17:14:33;;;;;;;;;2.00;1.00;;;;;;;;5053100;28;8872;-78
2022/10/07 17:17:00;;;;;;;;;2.00;2.00;;;;;;;;5059253;28;8858;-77
2022/10/07 17:19:29;;;;;;;;;1.00;1.00;;;;;;;;5052481;28;8957;-78
2022/10/07 17:21:59;;;;;;;;;2.50;1.50;;;;;;;;5057116;28;8888;-77
2022/10/07 17:24:27;;;;;;;;;1.00;1.00;;;;;;;;5037194;28;8852;-79
2022/10/07 17:26:55;;;;;;;;;1.00;1.00;;;;;;;;5056452;28;8878;-79
2022/10/07 17:29:24;;;;;;;;;0.75;0.75;;;;;;;;5062550;28;8878;-77
2022/10/07 17:31:52;;;;;;;;;3.00;1.00;;;;;;;;5051587;28;8826;-78
2022/10/07 17:34:21;;;;;;;;;3.50;0.00;;;;;;;;5039318;28;8954;-75
2022/10/07 17:36:49;;;;;;;;;2.00;1.50;;;;;;;;5041187;28;8873;-76
2022/10/07 17:39:18;;;;;;;;;2.00;2.00;;;;;;;;5061412;28;9478;-78
2022/10/07 17:41:46;;;;;;;;;4.50;1.50;;;;;;;;5058357;28;8854;-76
2022/10/07 17:44:14;;;;;;;;;2.00;2.00;;;;;;;;5053651;28;8884;-77
2022/10/07 17:46:41;;;;;;;;;1.00;1.00;;;;;;;;5039994;28;8857;-75
2022/10/07 17:53:16;;;;;;;;;1.00;1.00;;;;;;;;5068887;28;8830;-78
2022/10/07 17:55:52;;;;;;;;;1.00;1.00;;;;;;;;5049571;28;8878;-79
2022/10/07 17:58:19;;;;;;;;;2.25;1.00;;;;;;;;5059941;28;8878;-79
2022/10/07 18:00:47;;;;;;;;;1.25;1.25;;;;;;;;5058840;28;8866;-80
2022/10/07 18:03:14;;;;;;;;;1.50;1.50;;;;;;;;5032671;28;8846;-81
2022/10/07 18:05:43;;;;;;;;;1.00;1.00;;;;;;;;5056595;28;9641;-82